Mears, Virginia
Current Conditions -  °F | °C
As of 9:54 PM on Tuesday 25 Nov 2014 (Local Time) from KWAL Reporting Station
Overcast Overcast  
Wind Chill: 11°   Ceiling: 7500
Heat Index: 11°   Visibility: 10mi
Dew Point:   Wind: 3mph
Humidity: 77%   Direction: 40°NE
Pressure: 30.18"   Gusts: NA
Location:  37.86°N, 75.62°W
Report Text: KWAL 260254Z 04003KT 10SM FEW055 BKN075 OVC095 11/07 A3018 RMK AO2 SLP215 T01060067 53022
Loading
Personal Weather Stations






























Interactive Weather Map New forecast layout! Learn more

10-Day Weather Forecast

Advertisements
Track Severe Weather on mobile